sensor_id;sensor_type;location;lat;lon;timestamp;pressure;altitude;pressure_sealevel;temperature;humidity
29569;BME280;16501;51.462;14.346;2023-02-17T00:00:06;100595.28;;;6.50;95.86
29569;BME280;16501;51.462;14.346;2023-02-17T00:02:33;100633.72;;;6.72;96.30
29569;BME280;16501;51.462;14.346;2023-02-17T00:04:58;100571.88;;;6.31;96.10
29569;BME280;16501;51.462;14.346;2023-02-17T00:07:24;100608.25;;;6.57;96.51
29569;BME280;16501;51.462;14.346;2023-02-17T00:09:50;100621.13;;;6.67;96.32
29569;BME280;16501;51.462;14.346;2023-02-17T00:12:15;100623.72;;;6.74;95.90
29569;BME280;16501;51.462;14.346;2023-02-17T00:14:40;100619.00;;;6.71;96.40
29569;BME280;16501;51.462;14.346;2023-02-17T00:17:07;100587.16;;;6.56;96.23
29569;BME280;16501;51.462;14.346;2023-02-17T00:19:34;100613.34;;;6.75;96.32
29569;BME280;16501;51.462;14.346;2023-02-17T00:22:00;100612.91;;;6.76;96.25
29569;BME280;16501;51.462;14.346;2023-02-17T00:24:28;100609.34;;;6.76;96.50
29569;BME280;16501;51.462;14.346;2023-02-17T00:26:56;100614.56;;;6.74;96.42
29569;BME280;16501;51.462;14.346;2023-02-17T00:29:21;100608.72;;;6.68;96.47
29569;BME280;16501;51.462;14.346;2023-02-17T00:31:47;100614.56;;;6.74;96.16
29569;BME280;16501;51.462;14.346;2023-02-17T00:34:12;100586.72;;;6.57;96.57
29569;BME280;16501;51.462;14.346;2023-02-17T00:36:38;100614.56;;;6.74;96.46
29569;BME280;16501;51.462;14.346;2023-02-17T00:39:05;100611.78;;;6.74;96.50
29569;BME280;16501;51.462;14.346;2023-02-17T00:41:31;100609.16;;;6.67;96.75
29569;BME280;16501;51.462;14.346;2023-02-17T00:43:58;100615.78;;;6.73;97.03
29569;BME280;16501;51.462;14.346;2023-02-17T00:46:24;100611.88;;;6.70;96.89
29569;BME280;16501;51.462;14.346;2023-02-17T00:48:50;100612.28;;;6.69;97.08
29569;BME280;16501;51.462;14.346;2023-02-17T00:51:16;100616.13;;;6.75;96.66
29569;BME280;16501;51.462;14.346;2023-02-17T00:53:44;100616.56;;;6.73;97.17
29569;BME280;16501;51.462;14.346;2023-02-17T00:56:10;100622.56;;;6.72;96.92
29569;BME280;16501;51.462;14.346;2023-02-17T00:58:36;100622.47;;;6.75;96.77
29569;BME280;16501;51.462;14.346;2023-02-17T01:01:02;100616.47;;;6.77;96.81
29569;BME280;16501;51.462;14.346;2023-02-17T01:03:29;100601.16;;;6.69;96.62
29569;BME280;16501;51.462;14.346;2023-02-17T01:05:55;100612.91;;;6.76;96.90
29569;BME280;16501;51.462;14.346;2023-02-17T01:08:22;100603.69;;;6.79;96.82
29569;BME280;16501;51.462;14.346;2023-02-17T01:10:49;100601.31;;;6.78;96.92
29569;BME280;16501;51.462;14.346;2023-02-17T01:13:15;100600.19;;;6.75;97.12
29569;BME280;16501;51.462;14.346;2023-02-17T01:15:48;100579.03;;;6.61;97.16
29569;BME280;16501;51.462;14.346;2023-02-17T01:18:17;100592.63;;;6.76;96.78
29569;BME280;16501;51.462;14.346;2023-02-17T01:20:43;100582.72;;;6.58;96.99
29569;BME280;16501;51.462;14.346;2023-02-17T01:23:10;100568.44;;;6.56;97.26
29569;BME280;16501;51.462;14.346;2023-02-17T01:25:37;100586.78;;;6.70;97.59
29569;BME280;16501;51.462;14.346;2023-02-17T01:28:02;100579.41;;;6.64;96.82
29569;BME280;16501;51.462;14.346;2023-02-17T01:30:28;100587.06;;;6.76;97.21
29569;BME280;16501;51.462;14.346;2023-02-17T01:32:53;100577.66;;;6.70;97.45
29569;BME280;16501;51.462;14.346;2023-02-17T01:35:18;100559.63;;;6.58;96.83
29569;BME280;16501;51.462;14.346;2023-02-17T01:37:44;100536.53;;;6.45;96.75
29569;BME280;16501;51.462;14.346;2023-02-17T01:40:11;100550.31;;;6.65;96.95
29569;BME280;16501;51.462;14.346;2023-02-17T01:42:37;100571.00;;;6.80;96.39
29569;BME280;16501;51.462;14.346;2023-02-17T01:47:45;100572.06;;;6.86;96.59
29569;BME280;16501;51.462;14.346;2023-02-17T01:50:14;100513.63;;;6.53;96.57
29569;BME280;16501;51.462;14.346;2023-02-17T01:52:40;100557.75;;;6.84;96.78
29569;BME280;16501;51.462;14.346;2023-02-17T01:55:10;100542.81;;;6.78;96.54
29569;BME280;16501;51.462;14.346;2023-02-17T01:57:38;100539.13;;;6.81;96.99
29569;BME280;16501;51.462;14.346;2023-02-17T02:00:07;100474.97;;;6.39;96.82
29569;BME280;16501;51.462;14.346;2023-02-17T02:02:34;100531.31;;;6.76;96.85
29569;BME280;16501;51.462;14.346;2023-02-17T02:04:59;100516.59;;;6.75;97.47
29569;BME280;16501;51.462;14.346;2023-02-17T02:07:33;100488.25;;;6.64;97.42
29569;BME280;16501;51.462;14.346;2023-02-17T02:10:01;100504.47;;;6.82;97.13
29569;BME280;16501;51.462;14.346;2023-02-17T02:12:32;100476.97;;;6.55;97.39
29569;BME280;16501;51.462;14.346;2023-02-17T02:15:23;100502.91;;;6.81;97.27
29569;BME280;16501;51.462;14.346;2023-02-17T02:18:00;100502.09;;;6.80;97.68
29569;BME280;16501;51.462;14.346;2023-02-17T02:26:13;100438.53;;;6.33;97.84
29569;BME280;16501;51.462;14.346;2023-02-17T02:28:54;100489.41;;;6.79;98.19
29569;BME280;16501;51.462;14.346;2023-02-17T02:31:41;100476.13;;;6.71;98.30
29569;BME280;16501;51.462;14.346;2023-02-17T02:34:20;100488.50;;;6.83;97.84
29569;BME280;16501;51.462;14.346;2023-02-17T02:39:42;100473.47;;;6.80;98.32
29569;BME280;16501;51.462;14.346;2023-02-17T02:42:12;100465.66;;;6.75;98.28
29569;BME280;16501;51.462;14.346;2023-02-17T02:44:39;100470.69;;;6.80;98.50
29569;BME280;16501;51.462;14.346;2023-02-17T02:47:41;100462.84;;;6.75;98.35
29569;BME280;16501;51.462;14.346;2023-02-17T02:49:52;100461.00;;;6.85;98.14
29569;BME280;16501;51.462;14.346;2023-02-17T02:52:41;100453.06;;;6.83;98.72
29569;BME280;16501;51.462;14.346;2023-02-17T02:57:52;100454.88;;;6.90;98.70
29569;BME280;16501;51.462;14.346;2023-02-17T03:00:35;100447.97;;;6.94;98.21
29569;BME280;16501;51.462;14.346;2023-02-17T03:03:11;100432.44;;;6.80;98.50
29569;BME280;16501;51.462;14.346;2023-02-17T03:05:54;100455.09;;;6.95;98.70
29569;BME280;16501;51.462;14.346;2023-02-17T03:08:34;100459.44;;;6.96;98.53
29569;BME280;16501;51.462;14.346;2023-02-17T03:11:02;100453.19;;;6.92;99.11
29569;BME280;16501;51.462;14.346;2023-02-17T03:13:27;100450.19;;;6.99;99.60
29569;BME280;16501;51.462;14.346;2023-02-17T03:15:52;100447.75;;;7.02;100.00
29569;BME280;16501;51.462;14.346;2023-02-17T03:18:18;100434.72;;;6.98;100.00
29569;BME280;16501;51.462;14.346;2023-02-17T03:21:03;100411.91;;;6.74;100.00
29569;BME280;16501;51.462;14.346;2023-02-17T03:23:30;100436.25;;;6.99;100.00
29569;BME280;16501;51.462;14.346;2023-02-17T03:25:56;100365.16;;;6.53;100.00
29569;BME280;16501;51.462;14.346;2023-02-17T03:28:23;100433.47;;;6.99;100.00
29569;BME280;16501;51.462;14.346;2023-02-17T03:30:48;100433.56;;;6.96;100.00
29569;BME280;16501;51.462;14.346;2023-02-17T03:33:13;100384.94;;;6.71;100.00
29569;BME280;16501;51.462;14.346;2023-02-17T03:35:39;100417.50;;;7.00;100.00
29569;BME280;16501;51.462;14.346;2023-02-17T03:38:05;100378.50;;;6.87;100.00
29569;BME280;16501;51.462;14.346;2023-02-17T03:40:31;100414.88;;;7.09;100.00
29569;BME280;16501;51.462;14.346;2023-02-17T03:42:57;100357.41;;;6.73;100.00
29569;BME280;16501;51.462;14.346;2023-02-17T03:45:22;100407.28;;;7.10;100.00
29569;BME280;16501;51.462;14.346;2023-02-17T03:47:48;100382.19;;;6.97;100.00
29569;BME280;16501;51.462;14.346;2023-02-17T03:50:14;100409.50;;;7.15;100.00
29569;BME280;16501;51.462;14.346;2023-02-17T03:52:41;100392.34;;;7.04;100.00
29569;BME280;16501;51.462;14.346;2023-02-17T03:55:07;100385.09;;;7.06;100.00
29569;BME280;16501;51.462;14.346;2023-02-17T03:57:32;100399.81;;;7.20;100.00
29569;BME280;16501;51.462;14.346;2023-02-17T03:59:59;100386.88;;;7.13;100.00
29569;BME280;16501;51.462;14.346;2023-02-17T04:02:24;100389.75;;;7.22;100.00
29569;BME280;16501;51.462;14.346;2023-02-17T04:04:50;100393.44;;;7.19;100.00
29569;BME280;16501;51.462;14.346;2023-02-17T04:07:15;100361.19;;;7.05;100.00
29569;BME280;16501;51.462;14.346;2023-02-17T04:09:40;100385.31;;;7.25;100.00
29569;BME280;16501;51.462;14.346;2023-02-17T04:12:06;100356.53;;;6.89;100.00
29569;BME280;16501;51.462;14.346;2023-02-17T04:14:32;100403.59;;;7.26;100.00
29569;BME280;16501;51.462;14.346;2023-02-17T04:16:58;100397.56;;;7.27;100.00
29569;BME280;16501;51.462;14.346;2023-02-17T04:19:23;100372.81;;;7.16;100.00
29569;BME280;16501;51.462;14.346;2023-02-17T04:21:48;100384.97;;;7.23;100.00
29569;BME280;16501;51.462;14.346;2023-02-17T04:24:14;100378.06;;;7.14;100.00
29569;BME280;16501;51.462;14.346;2023-02-17T04:26:39;100383.94;;;7.29;100.00
29569;BME280;16501;51.462;14.346;2023-02-17T04:29:04;100361.09;;;7.09;100.00
29569;BME280;16501;51.462;14.346;2023-02-17T04:31:30;100378.69;;;7.31;100.00
29569;BME280;16501;51.462;14.346;2023-02-17T04:33:55;100378.69;;;7.31;100.00
29569;BME280;16501;51.462;14.346;2023-02-17T04:36:20;100374.94;;;7.25;100.00
29569;BME280;16501;51.462;14.346;2023-02-17T04:38:46;100353.75;;;7.15;100.00
29569;BME280;16501;51.462;14.346;2023-02-17T04:41:11;100346.81;;;7.07;100.00
29569;BME280;16501;51.462;14.346;2023-02-17T04:43:36;100382.84;;;7.27;100.00
29569;BME280;16501;51.462;14.346;2023-02-17T04:46:03;100382.94;;;7.36;100.00
29569;BME280;16501;51.462;14.346;2023-02-17T04:48:29;100399.69;;;7.36;100.00
29569;BME280;16501;51.462;14.346;2023-02-17T04:50:54;100388.97;;;7.34;100.00
29569;BME280;16501;51.462;14.346;2023-02-17T04:53:19;100386.75;;;7.29;100.00
29569;BME280;16501;51.462;14.346;2023-02-17T04:55:49;100380.50;;;7.25;100.00
29569;BME280;16501;51.462;14.346;2023-02-17T04:58:16;100393.09;;;7.17;100.00
29569;BME280;16501;51.462;14.346;2023-02-17T05:00:41;100379.72;;;7.12;100.00
29569;BME280;16501;51.462;14.346;2023-02-17T05:03:07;100372.25;;;7.09;100.00
29569;BME280;16501;51.462;14.346;2023-02-17T05:05:32;100331.09;;;6.74;100.00
29569;BME280;16501;51.462;14.346;2023-02-17T05:07:58;100348.84;;;6.93;100.00
29569;BME280;16501;51.462;14.346;2023-02-17T05:10:24;100347.50;;;6.85;100.00
29569;BME280;16501;51.462;14.346;2023-02-17T05:12:50;100329.19;;;6.71;100.00
29569;BME280;16501;51.462;14.346;2023-02-17T05:15:16;100338.34;;;6.72;100.00
29569;BME280;16501;51.462;14.346;2023-02-17T05:17:41;100347.16;;;6.83;100.00
29569;BME280;16501;51.462;14.346;2023-02-17T05:20:08;100339.03;;;6.76;100.00
29569;BME280;16501;51.462;14.346;2023-02-17T05:22:33;100337.47;;;6.75;100.00
29569;BME280;16501;51.462;14.346;2023-02-17T05:25:00;100354.94;;;6.75;100.00
29569;BME280;16501;51.462;14.346;2023-02-17T05:27:26;100345.69;;;6.66;100.00
29569;BME280;16501;51.462;14.346;2023-02-17T05:29:52;100360.97;;;6.74;100.00
29569;BME280;16501;51.462;14.346;2023-02-17T05:32:17;100364.34;;;6.82;100.00
29569;BME280;16501;51.462;14.346;2023-02-17T05:34:43;100320.03;;;6.58;100.00
29569;BME280;16501;51.462;14.346;2023-02-17T05:37:09;100357.19;;;6.80;100.00
29569;BME280;16501;51.462;14.346;2023-02-17T05:39:34;100340.78;;;6.70;100.00
29569;BME280;16501;51.462;14.346;2023-02-17T05:41:59;100346.47;;;6.66;100.00
29569;BME280;16501;51.462;14.346;2023-02-17T05:44:25;100342.38;;;6.71;100.00
29569;BME280;16501;51.462;14.346;2023-02-17T05:46:50;100360.19;;;6.73;100.00
29569;BME280;16501;51.462;14.346;2023-02-17T05:49:15;100351.81;;;6.73;100.00
29569;BME280;16501;51.462;14.346;2023-02-17T05:51:42;100355.94;;;6.69;100.00
29569;BME280;16501;51.462;14.346;2023-02-17T05:54:07;100350.94;;;6.64;100.00
29569;BME280;16501;51.462;14.346;2023-02-17T05:56:33;100341.22;;;6.55;100.00
29569;BME280;16501;51.462;14.346;2023-02-17T05:58:58;100311.00;;;6.41;100.00
29569;BME280;16501;51.462;14.346;2023-02-17T06:01:26;100348.94;;;6.64;100.00
29569;BME280;16501;51.462;14.346;2023-02-17T06:03:51;100339.78;;;6.64;100.00
29569;BME280;16501;51.462;14.346;2023-02-17T06:06:18;100312.00;;;6.47;100.00
29569;BME280;16501;51.462;14.346;2023-02-17T06:08:45;100282.91;;;6.22;100.00
29569;BME280;16501;51.462;14.346;2023-02-17T06:11:10;100333.19;;;6.57;100.00
29569;BME280;16501;51.462;14.346;2023-02-17T06:13:37;100325.72;;;6.54;100.00
29569;BME280;16501;51.462;14.346;2023-02-17T06:16:03;100308.78;;;6.36;100.00
29569;BME280;16501;51.462;14.346;2023-02-17T06:18:28;100314.25;;;6.52;100.00
29569;BME280;16501;51.462;14.346;2023-02-17T06:20:55;100326.75;;;6.60;100.00
29569;BME280;16501;51.462;14.346;2023-02-17T06:23:24;100307.03;;;6.55;100.00
29569;BME280;16501;51.462;14.346;2023-02-17T06:25:50;100304.91;;;6.59;100.00
29569;BME280;16501;51.462;14.346;2023-02-17T06:28:17;100306.81;;;6.62;100.00
29569;BME280;16501;51.462;14.346;2023-02-17T06:30:44;100309.22;;;6.60;100.00
29569;BME280;16501;51.462;14.346;2023-02-17T06:33:10;100310.81;;;6.61;100.00
29569;BME280;16501;51.462;14.346;2023-02-17T06:35:35;100314.03;;;6.59;100.00
29569;BME280;16501;51.462;14.346;2023-02-17T06:38:02;100315.94;;;6.63;100.00
29569;BME280;16501;51.462;14.346;2023-02-17T06:40:27;100289.84;;;6.44;100.00
29569;BME280;16501;51.462;14.346;2023-02-17T06:42:53;100313.91;;;6.63;100.00
29569;BME280;16501;51.462;14.346;2023-02-17T06:45:18;100268.22;;;6.35;100.00
29569;BME280;16501;51.462;14.346;2023-02-17T06:47:43;100269.19;;;6.28;100.00
29569;BME280;16501;51.462;14.346;2023-02-17T06:50:09;100289.84;;;6.44;100.00
29569;BME280;16501;51.462;14.346;2023-02-17T06:52:35;100292.97;;;6.58;100.00
29569;BME280;16501;51.462;14.346;2023-02-17T06:55:01;100301.66;;;6.60;100.00
29569;BME280;16501;51.462;14.346;2023-02-17T06:57:26;100323.06;;;6.64;100.00
29569;BME280;16501;51.462;14.346;2023-02-17T06:59:51;100307.25;;;6.60;100.00
29569;BME280;16501;51.462;14.346;2023-02-17T07:02:17;100282.34;;;6.40;100.00
29569;BME280;16501;51.462;14.346;2023-02-17T07:04:42;100301.34;;;6.58;100.00
29569;BME280;16501;51.462;14.346;2023-02-17T07:07:11;100297.53;;;6.52;100.00
29569;BME280;16501;51.462;14.346;2023-02-17T07:09:37;100305.34;;;6.57;100.00
29569;BME280;16501;51.462;14.346;2023-02-17T07:12:03;100310.38;;;6.63;100.00
29569;BME280;16501;51.462;14.346;2023-02-17T07:14:31;100273.56;;;6.42;100.00
29569;BME280;16501;51.462;14.346;2023-02-17T07:16:57;100282.16;;;6.48;100.00
29569;BME280;16501;51.462;14.346;2023-02-17T07:19:22;100316.59;;;6.67;100.00
29569;BME280;16501;51.462;14.346;2023-02-17T07:21:47;100292.72;;;6.53;100.00
29569;BME280;16501;51.462;14.346;2023-02-17T07:24:13;100292.50;;;6.60;100.00
29569;BME280;16501;51.462;14.346;2023-02-17T07:26:39;100312.94;;;6.70;100.00
29569;BME280;16501;51.462;14.346;2023-02-17T07:29:06;100310.13;;;6.70;100.00
29569;BME280;16501;51.462;14.346;2023-02-17T07:31:32;100307.03;;;6.68;100.00
29569;BME280;16501;51.462;14.346;2023-02-17T07:33:59;100310.91;;;6.70;100.00
29569;BME280;16501;51.462;14.346;2023-02-17T07:36:25;100299.75;;;6.70;100.00
29569;BME280;16501;51.462;14.346;2023-02-17T07:38:51;100266.88;;;6.52;100.00
29569;BME280;16501;51.462;14.346;2023-02-17T07:41:19;100275.13;;;6.56;100.00
29569;BME280;16501;51.462;14.346;2023-02-17T07:43:44;100261.00;;;6.50;100.00
29569;BME280;16501;51.462;14.346;2023-02-17T07:46:11;100307.94;;;6.77;100.00
29569;BME280;16501;51.462;14.346;2023-02-17T07:48:38;100275.47;;;6.58;100.00
29569;BME280;16501;51.462;14.346;2023-02-17T07:51:11;100290.84;;;6.75;100.00
29569;BME280;16501;51.462;14.346;2023-02-17T07:53:37;100288.63;;;6.83;100.00
29569;BME280;16501;51.462;14.346;2023-02-17T07:56:04;100259.00;;;6.64;100.00
29569;BME280;16501;51.462;14.346;2023-02-17T07:58:35;100281.06;;;6.84;100.00
29569;BME280;16501;51.462;14.346;2023-02-17T08:01:13;100288.41;;;6.90;100.00
29569;BME280;16501;51.462;14.346;2023-02-17T08:03:40;100282.94;;;6.87;100.00
29569;BME280;16501;51.462;14.346;2023-02-17T08:06:10;100296.22;;;6.95;100.00
29569;BME280;16501;51.462;14.346;2023-02-17T08:08:36;100268.69;;;6.85;100.00
29569;BME280;16501;51.462;14.346;2023-02-17T08:11:20;100273.56;;;6.80;100.00
29569;BME280;16501;51.462;14.346;2023-02-17T08:14:04;100292.19;;;6.96;100.00
29569;BME280;16501;51.462;14.346;2023-02-17T08:16:29;100227.56;;;6.50;100.00
29569;BME280;16501;51.462;14.346;2023-02-17T08:18:56;100294.53;;;7.11;100.00
29569;BME280;16501;51.462;14.346;2023-02-17T08:21:23;100260.22;;;6.88;100.00
29569;BME280;16501;51.462;14.346;2023-02-17T08:23:49;100285.25;;;7.14;100.00
29569;BME280;16501;51.462;14.346;2023-02-17T08:26:16;100291.19;;;7.16;100.00
29569;BME280;16501;51.462;14.346;2023-02-17T08:28:43;100297.09;;;7.18;100.00
29569;BME280;16501;51.462;14.346;2023-02-17T08:33:41;100259.63;;;7.06;100.00
29569;BME280;16501;51.462;14.346;2023-02-17T08:36:07;100261.41;;;7.13;100.00
29569;BME280;16501;51.462;14.346;2023-02-17T08:38:34;100277.75;;;7.24;100.00
29569;BME280;16501;51.462;14.346;2023-02-17T08:40:59;100276.44;;;7.63;100.00
29569;BME280;16501;51.462;14.346;2023-02-17T08:43:25;100281.47;;;7.55;100.00
29569;BME280;16501;51.462;14.346;2023-02-17T08:45:50;100232.44;;;7.32;100.00
29569;BME280;16501;51.462;14.346;2023-02-17T08:48:16;100261.72;;;7.50;100.00
29569;BME280;16501;51.462;14.346;2023-02-17T08:50:41;100275.69;;;7.50;100.00
29569;BME280;16501;51.462;14.346;2023-02-17T08:53:07;100252.16;;;7.38;100.00
29569;BME280;16501;51.462;14.346;2023-02-17T08:55:33;100247.38;;;7.39;100.00
29569;BME280;16501;51.462;14.346;2023-02-17T08:57:59;100262.06;;;7.52;100.00
29569;BME280;16501;51.462;14.346;2023-02-17T09:00:24;100262.50;;;7.50;100.00
29569;BME280;16501;51.462;14.346;2023-02-17T09:02:49;100256.94;;;7.50;100.00
29569;BME280;16501;51.462;14.346;2023-02-17T09:05:15;100263.50;;;7.57;100.00
29569;BME280;16501;51.462;14.346;2023-02-17T09:07:40;100254.81;;;7.54;100.00
29569;BME280;16501;51.462;14.346;2023-02-17T09:10:09;100262.47;;;7.63;100.00
29569;BME280;16501;51.462;14.346;2023-02-17T09:12:35;100257.22;;;7.65;100.00
29569;BME280;16501;51.462;14.346;2023-02-17T09:15:00;100257.66;;;7.64;100.00
29569;BME280;16501;51.462;14.346;2023-02-17T09:17:26;100243.00;;;7.72;100.00
29569;BME280;16501;51.462;14.346;2023-02-17T09:22:37;100244.22;;;7.71;100.00
29569;BME280;16501;51.462;14.346;2023-02-17T09:25:04;100248.78;;;7.78;100.00
29569;BME280;16501;51.462;14.346;2023-02-17T09:27:30;100250.22;;;7.83;100.00
29569;BME280;16501;51.462;14.346;2023-02-17T09:29:56;100259.56;;;7.89;100.00
29569;BME280;16501;51.462;14.346;2023-02-17T09:32:22;100257.09;;;7.91;100.00
29569;BME280;16501;51.462;14.346;2023-02-17T09:34:49;100262.56;;;7.95;100.00
29569;BME280;16501;51.462;14.346;2023-02-17T09:37:15;100248.16;;;7.96;100.00
29569;BME280;16501;51.462;14.346;2023-02-17T09:39:46;100238.78;;;7.90;100.00
29569;BME280;16501;51.462;14.346;2023-02-17T09:42:21;100220.28;;;7.83;100.00
29569;BME280;16501;51.462;14.346;2023-02-17T09:44:50;100254.50;;;7.97;100.00
29569;BME280;16501;51.462;14.346;2023-02-17T09:47:23;100248.66;;;8.04;100.00
29569;BME280;16501;51.462;14.346;2023-02-17T09:50:06;100233.59;;;8.01;100.00
29569;BME280;16501;51.462;14.346;2023-02-17T09:52:50;100243.56;;;8.11;100.00
29569;BME280;16501;51.462;14.346;2023-02-17T09:55:24;100228.69;;;8.15;100.00
29569;BME280;16501;51.462;14.346;2023-02-17T09:58:00;100188.53;;;7.90;100.00
29569;BME280;16501;51.462;14.346;2023-02-17T10:01:15;100220.97;;;8.19;100.00
29569;BME280;16501;51.462;14.346;2023-02-17T10:03:45;100211.66;;;8.22;100.00
29569;BME280;16501;51.462;14.346;2023-02-17T10:06:43;100219.59;;;8.23;100.00
29569;BME280;16501;51.462;14.346;2023-02-17T10:09:11;100224.72;;;8.25;100.00
29569;BME280;16501;51.462;14.346;2023-02-17T10:11:51;100213.41;;;8.28;100.00
29569;BME280;16501;51.462;14.346;2023-02-17T10:19:50;100206.75;;;8.35;100.00
29569;BME280;16501;51.462;14.346;2023-02-17T10:22:20;100207.38;;;8.39;100.00
29569;BME280;16501;51.462;14.346;2023-02-17T10:24:49;100181.38;;;8.20;100.00
29569;BME280;16501;51.462;14.346;2023-02-17T10:30:25;100197.53;;;8.47;100.00
29569;BME280;16501;51.462;14.346;2023-02-17T10:33:16;100186.97;;;8.52;100.00
29569;BME280;16501;51.462;14.346;2023-02-17T10:35:58;100177.38;;;8.53;100.00
29569;BME280;16501;51.462;14.346;2023-02-17T10:38:51;100168.97;;;8.53;100.00
29569;BME280;16501;51.462;14.346;2023-02-17T10:41:21;100166.50;;;8.55;100.00
29569;BME280;16501;51.462;14.346;2023-02-17T10:43:49;100158.91;;;8.55;100.00
29569;BME280;16501;51.462;14.346;2023-02-17T10:46:18;100155.63;;;8.57;100.00
29569;BME280;16501;51.462;14.346;2023-02-17T10:48:49;100150.19;;;8.53;100.00
29569;BME280;16501;51.462;14.346;2023-02-17T10:51:17;100147.09;;;8.60;100.00
29569;BME280;16501;51.462;14.346;2023-02-17T10:53:49;100143.53;;;8.60;100.00
29569;BME280;16501;51.462;14.346;2023-02-17T10:56:23;100121.19;;;8.60;100.00
29569;BME280;16501;51.462;14.346;2023-02-17T10:59:18;100009.25;;;7.86;100.00
29569;BME280;16501;51.462;14.346;2023-02-17T11:01:45;100101.75;;;8.56;100.00
29569;BME280;16501;51.462;14.346;2023-02-17T11:04:11;100105.81;;;8.64;100.00
29569;BME280;16501;51.462;14.346;2023-02-17T11:06:41;100077.69;;;8.49;100.00
29569;BME280;16501;51.462;14.346;2023-02-17T11:09:20;100106.28;;;8.72;100.00
29569;BME280;16501;51.462;14.346;2023-02-17T11:11:57;100080.97;;;8.66;100.00
29569;BME280;16501;51.462;14.346;2023-02-17T11:14:26;100068.22;;;8.56;100.00
29569;BME280;16501;51.462;14.346;2023-02-17T11:17:21;100074.00;;;8.71;100.00
29569;BME280;16501;51.462;14.346;2023-02-17T11:19:57;100052.56;;;8.59;100.00
29569;BME280;16501;51.462;14.346;2023-02-17T11:22:34;100077.41;;;8.75;100.00
29569;BME280;16501;51.462;14.346;2023-02-17T11:25:23;100057.84;;;8.75;100.00
29569;BME280;16501;51.462;14.346;2023-02-17T11:27:53;100013.09;;;8.47;100.00
29569;BME280;16501;51.462;14.346;2023-02-17T11:30:19;100040.16;;;8.69;100.00
29569;BME280;16501;51.462;14.346;2023-02-17T11:32:45;100041.53;;;8.74;100.00
29569;BME280;16501;51.462;14.346;2023-02-17T11:36:05;100031.44;;;8.76;100.00
29569;BME280;16501;51.462;14.346;2023-02-17T11:38:21;100046.50;;;8.79;100.00
29569;BME280;16501;51.462;14.346;2023-02-17T11:41:06;100036.44;;;8.81;100.00
29569;BME280;16501;51.462;14.346;2023-02-17T11:43:33;100033.47;;;8.85;100.00
29569;BME280;16501;51.462;14.346;2023-02-17T11:46:20;100034.53;;;8.87;100.00
29569;BME280;16501;51.462;14.346;2023-02-17T11:54:35;99995.88;;;8.95;100.00
29569;BME280;16501;51.462;14.346;2023-02-17T11:57:26;99998.50;;;8.99;100.00
29569;BME280;16501;51.462;14.346;2023-02-17T12:11:18;99950.03;;;8.93;100.00
29569;BME280;16501;51.462;14.346;2023-02-17T12:13:57;99968.00;;;9.10;100.00
29569;BME280;16501;51.462;14.346;2023-02-17T12:19:23;99956.50;;;9.17;100.00
29569;BME280;16501;51.462;14.346;2023-02-17T12:24:46;99931.34;;;9.08;100.00
29569;BME280;16501;51.462;14.346;2023-02-17T12:35:43;99916.34;;;9.39;100.00
29569;BME280;16501;51.462;14.346;2023-02-17T12:38:16;99922.69;;;9.39;100.00
29569;BME280;16501;51.462;14.346;2023-02-17T12:40:46;99909.94;;;9.38;100.00
29569;BME280;16501;51.462;14.346;2023-02-17T12:43:27;99906.16;;;9.51;100.00
29569;BME280;16501;51.462;14.346;2023-02-17T12:45:58;99923.09;;;9.56;100.00
29569;BME280;16501;51.462;14.346;2023-02-17T12:51:22;99902.34;;;9.63;100.00
29569;BME280;16501;51.462;14.346;2023-02-17T12:59:34;99895.25;;;9.77;100.00
29569;BME280;16501;51.462;14.346;2023-02-17T13:02:04;99873.22;;;9.70;100.00
29569;BME280;16501;51.462;14.346;2023-02-17T13:04:33;99878.44;;;9.86;100.00
29569;BME280;16501;51.462;14.346;2023-02-17T13:07:08;99862.88;;;9.85;100.00
29569;BME280;16501;51.462;14.346;2023-02-17T13:09:43;99856.06;;;9.77;100.00
29569;BME280;16501;51.462;14.346;2023-02-17T13:12:34;99846.97;;;9.91;100.00
29569;BME280;16501;51.462;14.346;2023-02-17T13:15:03;99830.22;;;9.82;100.00
29569;BME280;16501;51.462;14.346;2023-02-17T13:17:37;99846.13;;;10.00;100.00
29569;BME280;16501;51.462;14.346;2023-02-17T13:22:37;99850.16;;;9.99;100.00
29569;BME280;16501;51.462;14.346;2023-02-17T13:25:04;99841.75;;;9.99;100.00
29569;BME280;16501;51.462;14.346;2023-02-17T13:27:34;99851.59;;;9.94;100.00
29569;BME280;16501;51.462;14.346;2023-02-17T13:33:03;99802.72;;;9.80;100.00
29569;BME280;16501;51.462;14.346;2023-02-17T13:35:33;99819.44;;;10.05;100.00
29569;BME280;16501;51.462;14.346;2023-02-17T13:37:59;99807.38;;;9.98;100.00
29569;BME280;16501;51.462;14.346;2023-02-17T13:42:54;99801.78;;;10.13;100.00
29569;BME280;16501;51.462;14.346;2023-02-17T13:45:30;99799.09;;;10.19;100.00
29569;BME280;16501;51.462;14.346;2023-02-17T13:48:14;99726.31;;;9.80;100.00
29569;BME280;16501;51.462;14.346;2023-02-17T13:50:49;99790.31;;;10.26;100.00
29569;BME280;16501;51.462;14.346;2023-02-17T13:53:22;99784.34;;;10.33;100.00
29569;BME280;16501;51.462;14.346;2023-02-17T13:55:48;99766.16;;;10.14;100.00
29569;BME280;16501;51.462;14.346;2023-02-17T13:58:22;99780.00;;;10.32;100.00
29569;BME280;16501;51.462;14.346;2023-02-17T14:00:48;99779.72;;;10.45;100.00
29569;BME280;16501;51.462;14.346;2023-02-17T14:03:26;99758.47;;;10.38;100.00
29569;BME280;16501;51.462;14.346;2023-02-17T14:05:55;99783.38;;;10.51;100.00
29569;BME280;16501;51.462;14.346;2023-02-17T14:08:35;99782.88;;;10.53;100.00